createdAt,value
2023-04-10T00:02:16.102Z,9.65
2023-04-10T00:05:21.251Z,9.78
2023-04-10T00:08:26.617Z,9.47
2023-04-10T00:11:32.085Z,9.51
2023-04-10T00:14:37.635Z,9.44
2023-04-10T00:17:43.009Z,9.38
2023-04-10T00:20:47.862Z,9.26
2023-04-10T00:23:52.895Z,9.30
2023-04-10T00:26:58.359Z,9.37
2023-04-10T00:30:03.814Z,9.26
2023-04-10T00:33:09.048Z,9.18
2023-04-10T00:36:14.620Z,9.00
2023-04-10T00:39:19.850Z,9.13
2023-04-10T00:42:25.316Z,9.17
2023-04-10T00:45:31.006Z,9.17
2023-04-10T00:48:36.606Z,9.21
2023-04-10T00:51:42.141Z,9.13
2023-04-10T00:54:47.459Z,9.10
2023-04-10T00:57:52.804Z,9.31
2023-04-10T01:00:58.319Z,9.29
2023-04-10T01:04:03.886Z,9.31
2023-04-10T01:07:15.682Z,9.18
2023-04-10T01:10:43.175Z,9.23
2023-04-10T01:14:28.046Z,9.13
2023-04-10T01:17:54.479Z,9.05
2023-04-10T01:21:02.852Z,9.06
2023-04-10T01:24:22.242Z,8.95
2023-04-10T01:27:45.901Z,8.87
2023-04-10T01:30:54.261Z,8.91
2023-04-10T01:34:06.591Z,8.86
2023-04-10T01:37:21.671Z,8.91
2023-04-10T01:40:27.895Z,8.83
2023-04-10T01:43:34.530Z,8.96
2023-04-10T01:46:40.096Z,8.81
2023-04-10T01:49:49.541Z,8.85
2023-04-10T01:52:55.197Z,8.76
2023-04-10T01:56:03.509Z,8.81
2023-04-10T01:59:17.943Z,8.85
2023-04-10T02:02:23.758Z,8.59
2023-04-10T02:05:45.598Z,8.64
2023-04-10T02:09:04.688Z,8.58
2023-04-10T02:12:17.066Z,8.58
2023-04-10T02:15:24.473Z,8.39
2023-04-10T02:18:34.262Z,8.30
2023-04-10T02:21:42.371Z,8.28
2023-04-10T02:24:49.067Z,8.26
2023-04-10T02:27:54.718Z,8.13
2023-04-10T02:30:59.792Z,8.14
2023-04-10T02:34:05.455Z,8.08
2023-04-10T02:37:11.136Z,8.10
2023-04-10T02:40:17.119Z,8.24
2023-04-10T02:43:48.568Z,8.30
2023-04-10T02:46:55.841Z,8.28
2023-04-10T02:50:01.530Z,8.30
2023-04-10T02:53:16.553Z,8.44
2023-04-10T02:56:21.971Z,8.34
2023-04-10T02:59:27.923Z,8.23
2023-04-10T03:02:34.120Z,8.05
2023-04-10T03:05:49.845Z,7.90
2023-04-10T03:09:00.285Z,7.86
2023-04-10T03:12:06.567Z,7.88
2023-04-10T03:15:13.071Z,8.04
2023-04-10T03:18:18.699Z,7.79
2023-04-10T03:21:27.600Z,7.81
2023-04-10T03:24:32.798Z,7.60
2023-04-10T03:27:39.019Z,7.84
2023-04-10T03:30:46.196Z,7.95
2023-04-10T03:33:51.813Z,7.87
2023-04-10T03:36:57.978Z,7.82
2023-04-10T03:40:08.010Z,7.58
2023-04-10T03:43:14.026Z,7.69
2023-04-10T03:46:19.395Z,7.55
2023-04-10T03:49:24.690Z,7.59
2023-04-10T03:52:38.705Z,7.64
2023-04-10T03:55:48.229Z,7.59
2023-04-10T03:58:54.278Z,7.59
2023-04-10T04:01:59.790Z,7.57
2023-04-10T04:05:06.144Z,7.60
2023-04-10T04:08:29.117Z,7.27
2023-04-10T04:11:57.787Z,7.12
2023-04-10T04:15:24.223Z,7.25
2023-04-10T04:18:51.207Z,7.14
2023-04-10T04:22:05.911Z,7.28
2023-04-10T04:25:30.232Z,7.28
2023-04-10T04:28:58.245Z,7.33
2023-04-10T04:32:23.802Z,7.31
2023-04-10T04:35:41.363Z,7.13
2023-04-10T04:38:56.362Z,7.17
2023-04-10T04:42:29.390Z,7.00
2023-04-10T04:45:52.037Z,6.82
2023-04-10T04:49:15.937Z,6.88
2023-04-10T04:52:42.464Z,7.02
2023-04-10T04:56:03.801Z,6.94
2023-04-10T04:59:29.073Z,6.94
2023-04-10T05:03:01.250Z,6.95
2023-04-10T05:06:14.939Z,7.07
2023-04-10T05:09:44.573Z,7.10
2023-04-10T05:13:08.924Z,6.98
2023-04-10T05:16:44.079Z,7.10
2023-04-10T05:20:13.225Z,7.10
2023-04-10T05:23:44.222Z,7.12
2023-04-10T05:27:15.594Z,7.43
2023-04-10T05:30:39.637Z,7.41
2023-04-10T05:33:50.719Z,7.52
2023-04-10T05:37:01.666Z,7.63
2023-04-10T05:40:24.052Z,7.66
2023-04-10T05:43:49.978Z,7.72
2023-04-10T05:47:06.901Z,7.75
2023-04-10T05:50:36.139Z,7.96
2023-04-10T05:53:54.935Z,8.05
2023-04-10T05:57:20.884Z,8.29
2023-04-10T06:00:26.883Z,8.27
2023-04-10T06:03:50.834Z,8.29
2023-04-10T06:06:56.626Z,8.65
2023-04-10T06:10:02.626Z,8.51
2023-04-10T06:13:11.320Z,8.54
2023-04-10T06:16:17.422Z,8.72
2023-04-10T06:19:24.262Z,8.94
2023-04-10T06:22:29.599Z,8.95
2023-04-10T06:25:34.836Z,9.08
2023-04-10T06:28:40.554Z,9.14
2023-04-10T06:31:46.676Z,9.10
2023-04-10T06:34:53.133Z,9.35
2023-04-10T06:37:59.759Z,9.45
2023-04-10T06:41:08.081Z,9.63
2023-04-10T06:44:13.370Z,9.76
2023-04-10T06:47:19.016Z,9.73
2023-04-10T06:50:24.225Z,9.86
2023-04-10T06:53:29.844Z,10.04
2023-04-10T06:56:35.381Z,10.03
2023-04-10T06:59:40.475Z,9.95
2023-04-10T07:02:46.516Z,10.18
2023-04-10T07:05:51.982Z,10.32
2023-04-10T07:08:57.404Z,10.25
2023-04-10T07:12:03.144Z,10.37
2023-04-10T07:15:08.965Z,10.48
2023-04-10T07:18:14.151Z,10.43
2023-04-10T07:21:19.626Z,10.57
2023-04-10T07:24:24.693Z,10.61
2023-04-10T07:27:29.842Z,10.80
2023-04-10T07:30:35.141Z,10.93
2023-04-10T07:33:41.021Z,10.98
2023-04-10T07:36:47.388Z,10.93
2023-04-10T07:39:52.756Z,11.01
2023-04-10T07:42:58.275Z,11.09
2023-04-10T07:46:03.427Z,11.01
2023-04-10T07:49:08.892Z,11.28
2023-04-10T07:52:14.257Z,11.40
2023-04-10T07:55:20.028Z,11.44
2023-04-10T07:58:25.713Z,11.39
2023-04-10T08:01:31.109Z,11.51
2023-04-10T08:04:37.255Z,11.74
2023-04-10T08:07:43.120Z,11.69
2023-04-10T08:10:48.961Z,11.83
2023-04-10T08:13:56.079Z,11.89
2023-04-10T08:17:01.534Z,11.98
2023-04-10T08:20:07.473Z,12.20
2023-04-10T08:26:38.048Z,12.45
2023-04-10T08:29:43.969Z,12.37
2023-04-10T08:32:49.512Z,12.49
2023-04-10T08:35:55.652Z,12.66
2023-04-10T08:39:01.386Z,12.52
2023-04-10T08:42:07.474Z,12.55
2023-04-10T08:45:13.013Z,12.68
2023-04-10T08:48:20.758Z,12.85
2023-04-10T08:51:37.240Z,12.88
2023-04-10T08:54:47.350Z,13.06
2023-04-10T08:58:00.334Z,13.12
2023-04-10T09:01:07.408Z,12.90
2023-04-10T09:04:13.286Z,13.00
2023-04-10T09:07:19.004Z,12.92
2023-04-10T09:10:24.713Z,13.09
2023-04-10T14:49:41.153Z,17.29
2023-04-10T14:52:46.582Z,17.27
2023-04-10T14:55:51.924Z,17.40
2023-04-10T14:58:57.412Z,17.76
2023-04-10T15:02:02.891Z,17.54
2023-04-10T15:05:08.435Z,17.40
2023-04-10T15:08:14.198Z,17.42
2023-04-10T15:11:19.523Z,17.24
2023-04-10T15:14:24.965Z,17.15
2023-04-10T15:17:30.831Z,17.07
2023-04-10T15:20:36.340Z,17.25
2023-04-10T15:23:41.732Z,16.86
2023-04-10T15:26:47.552Z,16.55
2023-04-10T15:29:52.842Z,16.45
2023-04-10T15:32:58.415Z,16.75
2023-04-10T15:36:04.523Z,16.80
2023-04-10T15:39:11.162Z,16.61
2023-04-10T15:42:16.986Z,16.84
2023-04-10T15:45:22.715Z,17.20
2023-04-10T15:48:29.348Z,16.92
2023-04-10T15:51:34.912Z,16.75
2023-04-10T15:54:40.709Z,16.92
2023-04-10T15:57:46.169Z,17.07
2023-04-10T16:00:51.867Z,16.75
2023-04-10T16:03:57.929Z,16.95
2023-04-10T16:07:03.546Z,16.64
2023-04-10T16:10:12.319Z,16.85
2023-04-10T16:13:17.471Z,16.76
2023-04-10T16:16:22.904Z,16.91
2023-04-10T16:19:31.708Z,16.76
2023-04-10T16:22:37.158Z,16.79
2023-04-10T16:25:42.975Z,16.86
2023-04-10T16:28:48.638Z,16.67
2023-04-10T16:31:54.309Z,16.75
2023-04-10T16:35:00.699Z,16.59
2023-04-10T16:38:06.147Z,16.49
2023-04-10T16:41:12.859Z,16.30
2023-04-10T16:44:18.052Z,16.25
2023-04-10T16:47:23.639Z,16.09
2023-04-10T16:50:29.090Z,15.94
2023-04-10T16:53:36.300Z,15.86
2023-04-10T16:56:42.454Z,15.82
2023-04-10T16:59:48.424Z,15.56
2023-04-10T17:02:53.882Z,15.43
2023-04-10T17:05:59.580Z,15.31
2023-04-10T17:09:05.328Z,15.18
2023-04-10T17:12:10.805Z,15.18
2023-04-10T17:15:16.385Z,15.08
2023-04-10T17:18:23.259Z,14.93
2023-04-10T17:21:28.635Z,14.84
2023-04-10T17:24:34.378Z,14.73
2023-04-10T17:27:40.658Z,14.56
2023-04-10T17:30:46.472Z,14.51
2023-04-10T17:33:52.009Z,14.42
2023-04-10T17:36:57.951Z,14.30
2023-04-10T17:40:03.354Z,14.18
2023-04-10T17:43:09.049Z,14.12
2023-04-10T17:46:15.838Z,14.05
2023-04-10T17:49:22.386Z,13.90
2023-04-10T17:52:28.154Z,13.83
2023-04-10T17:55:39.883Z,13.69
2023-04-10T17:58:45.027Z,13.66
2023-04-10T18:01:50.980Z,13.65
2023-04-10T18:04:56.622Z,13.57
2023-04-10T18:08:02.536Z,13.57
2023-04-10T18:11:08.628Z,13.56
2023-04-10T18:14:14.308Z,13.46
2023-04-10T18:17:19.860Z,13.45
2023-04-10T18:20:25.216Z,13.39
2023-04-10T18:23:31.812Z,13.43
2023-04-10T18:26:37.446Z,13.37
2023-04-10T18:29:43.515Z,13.31
2023-04-10T18:32:52.396Z,13.26
2023-04-10T18:35:59.245Z,13.24
2023-04-10T18:39:05.149Z,13.23
2023-04-10T18:42:11.165Z,13.24
2023-04-10T18:45:17.224Z,13.23
2023-04-10T18:48:23.162Z,13.15
2023-04-10T18:51:29.267Z,13.05
2023-04-10T18:54:35.028Z,12.99
2023-04-10T18:57:40.439Z,12.89
2023-04-10T19:00:46.101Z,12.85
2023-04-10T19:03:52.922Z,12.73
2023-04-10T19:06:58.547Z,12.76
2023-04-10T19:10:04.481Z,12.68
2023-04-10T19:13:12.278Z,12.64
2023-04-10T19:16:19.784Z,12.63
2023-04-10T19:19:25.062Z,12.61
2023-04-10T19:22:33.115Z,12.64
2023-04-10T19:25:38.657Z,12.61
2023-04-10T19:28:44.477Z,12.46
2023-04-10T19:31:50.451Z,12.46
2023-04-10T19:34:56.503Z,12.30
2023-04-10T19:38:02.258Z,12.23
2023-04-10T19:41:16.118Z,12.25
2023-04-10T19:44:22.832Z,12.29
2023-04-10T19:47:29.213Z,12.27
2023-04-10T19:50:36.124Z,12.30
2023-04-10T19:53:42.482Z,12.34
2023-04-10T19:56:48.638Z,12.30
2023-04-10T19:59:54.803Z,12.22
2023-04-10T20:03:01.322Z,12.14
2023-04-10T20:06:09.628Z,12.15
2023-04-10T20:09:18.528Z,12.11
2023-04-10T20:12:24.842Z,12.00
2023-04-10T20:15:31.006Z,11.96
2023-04-10T20:18:37.191Z,11.95
2023-04-10T20:21:43.570Z,11.83
2023-04-10T20:24:49.969Z,11.84
2023-04-10T20:27:55.497Z,11.79
2023-04-10T20:31:01.148Z,11.74
2023-04-10T20:34:06.830Z,11.68
2023-04-10T20:37:13.975Z,11.64
2023-04-10T20:40:20.152Z,11.63
2023-04-10T20:43:26.011Z,11.53
2023-04-10T20:46:31.866Z,11.48
2023-04-10T20:49:40.737Z,11.46
2023-04-10T20:52:46.184Z,11.45
2023-04-10T20:55:54.373Z,11.45
2023-04-10T20:58:59.947Z,11.47
2023-04-10T21:02:05.544Z,11.48
2023-04-10T21:05:12.213Z,11.54
2023-04-10T21:08:17.569Z,11.54
2023-04-10T21:11:22.783Z,11.45
2023-04-10T21:14:28.235Z,11.43
2023-04-10T21:17:34.104Z,11.32
2023-04-10T21:20:39.881Z,11.28
2023-04-10T21:23:45.498Z,11.19
2023-04-10T21:26:50.913Z,11.19
2023-04-10T21:29:56.191Z,11.25
2023-04-10T21:33:01.198Z,11.27
2023-04-10T21:36:07.040Z,11.26
2023-04-10T21:39:12.269Z,11.25
2023-04-10T21:42:19.688Z,11.20
2023-04-10T21:45:25.054Z,11.25
2023-04-10T21:48:30.202Z,11.21
2023-04-10T21:51:35.391Z,11.21
2023-04-10T21:54:40.472Z,11.05
2023-04-10T21:57:45.690Z,11.00
2023-04-10T22:00:51.935Z,11.04
2023-04-10T22:03:57.858Z,10.94
2023-04-10T22:07:05.265Z,10.91
2023-04-10T22:10:11.281Z,11.04
2023-04-10T22:13:29.561Z,10.93
2023-04-10T22:16:37.100Z,10.98
2023-04-10T22:19:42.127Z,10.83
2023-04-10T22:22:47.446Z,10.82
2023-04-10T22:25:52.860Z,10.67
2023-04-10T22:28:59.344Z,10.62
2023-04-10T22:32:04.974Z,10.56
2023-04-10T22:35:10.929Z,10.27
2023-04-10T22:38:16.059Z,10.44
2023-04-10T22:41:21.683Z,10.51
2023-04-10T22:44:26.686Z,10.42
2023-04-10T22:47:31.929Z,10.34
2023-04-10T22:50:38.214Z,10.35
2023-04-10T22:53:43.515Z,10.43
2023-04-10T22:56:49.767Z,10.32
2023-04-10T22:59:54.864Z,10.44
2023-04-10T23:03:00.788Z,10.34
2023-04-10T23:06:06.385Z,10.17
2023-04-10T23:09:11.809Z,10.31
2023-04-10T23:12:17.311Z,10.31
2023-04-10T23:15:22.548Z,10.48
2023-04-10T23:18:27.674Z,10.38
2023-04-10T23:21:33.279Z,10.20
2023-04-10T23:24:39.041Z,10.17
2023-04-10T23:27:44.460Z,10.21
2023-04-10T23:30:49.650Z,10.27
2023-04-10T23:33:55.156Z,10.20
2023-04-10T23:37:00.308Z,10.23
2023-04-10T23:40:06.259Z,10.20
2023-04-10T23:43:11.441Z,10.08
2023-04-10T23:46:16.937Z,9.82
2023-04-10T23:49:22.529Z,9.87
2023-04-10T23:52:28.980Z,9.96
2023-04-10T23:55:35.768Z,9.83
2023-04-10T23:58:41.125Z,9.85
